LiveATC.Net - Listen to live air traffic control over the Internet!


ICAO: SBSN  IATA: STM   Airport: Santarem-Maestro Wilson Fonseca Airport
City: Santarem
Country: Brazil   Continent: South America
SBSN METAR Weather: SBSN 260600Z 14004KT 9999 -RA SCT013 BKN100 23/23 Q1009 RETS
SBSN Flight Activity (FlightAware)

SBSN Twr/App/ACC
Feed Status: UP   Listeners: 0
Listen in your browser - HTML5 player (in browser, HTML5)
Click here to listen with your own player (launches your MP3 player)
Archive Access: SBSN Twr/App/ACC
FacilityFrequency
Brasilia Center/ACC123.650
Brasilia Center/ACC125.050
Santarem Approach119.300
Santarem Tower118.100

NOTICE

Unauthorized use prohibited. See LiveATC.net Terms of Service


Airport/ARTCC Code
Frequency Search
(e.g., 124.400, 128.75)
Site-wide search
 


Browse Feeds
Top 50 Feeds
Coverage Map
Bad Weather Areas

LiveATC FAQ
Offer LiveATC feed
Contact LiveATC.net
Press Inquiries

LiveATC on iPhone
LiveATC on Android

Windows Phone
Windows 8/10

LiveATC Mobile
(Mobile browser)

ATC Audio Archives
Interesting Recordings

LiveATC Forums


Home Page
About LiveATC.net
Make a Donation
Terms of Use
Privacy Policy

Canadian Air Freqs

AIRMETs/SIGMETs

FAA Airport Status
Nat'l Airspace Status
Arrival Demand Charts


Server Software By:
Icecast.org
Liquidsoap